createdAt,value
2022-11-20T00:00:05.621Z,7.70
2022-11-20T00:02:36.260Z,6.90
2022-11-20T00:05:08.323Z,7.40
2022-11-20T00:07:38.998Z,7.30
2022-11-20T00:10:11.065Z,7.40
2022-11-20T00:12:41.765Z,7.90
2022-11-20T00:15:13.812Z,7.40
2022-11-20T00:17:44.680Z,7.80
2022-11-20T00:20:16.651Z,7.50
2022-11-20T00:22:47.480Z,7.90
2022-11-20T00:25:18.747Z,7.00
2022-11-20T00:27:49.874Z,7.30
2022-11-20T00:30:21.272Z,8.00
2022-11-20T00:32:51.951Z,7.50
2022-11-20T00:35:23.011Z,7.20
2022-11-20T00:37:53.653Z,7.60
2022-11-20T00:40:24.342Z,7.10
2022-11-20T00:42:55.007Z,7.70
2022-11-20T00:45:25.746Z,7.70
2022-11-20T00:47:56.361Z,7.50
2022-11-20T00:50:27.234Z,7.30
2022-11-20T00:52:57.907Z,7.10
2022-11-20T00:55:28.915Z,7.10
2022-11-20T00:58:02.485Z,7.40
2022-11-20T01:00:35.162Z,7.60
2022-11-20T01:03:06.006Z,7.40
2022-11-20T01:05:39.336Z,7.10
2022-11-20T01:08:12.902Z,6.90
2022-11-20T01:10:43.578Z,6.70
2022-11-20T01:13:46.549Z,7.10
2022-11-20T01:16:20.400Z,6.80
2022-11-20T01:18:53.127Z,6.90
2022-11-20T01:21:26.324Z,7.40
2022-11-20T01:23:58.634Z,7.30
2022-11-20T01:26:32.113Z,7.20
2022-11-20T01:29:03.941Z,7.20
2022-11-20T01:31:35.848Z,6.80
2022-11-20T01:34:08.182Z,7.30
2022-11-20T01:36:40.075Z,7.40
2022-11-20T01:39:15.156Z,6.90
2022-11-20T01:42:09.644Z,7.60
2022-11-20T01:44:59.668Z,6.80
2022-11-20T01:47:39.027Z,7.40
2022-11-20T01:50:16.805Z,7.70
2022-11-20T01:52:52.134Z,6.60
2022-11-20T01:55:25.735Z,7.40
2022-11-20T01:57:56.793Z,7.40
2022-11-20T02:00:27.735Z,7.90
2022-11-20T02:03:02.635Z,7.30
2022-11-20T02:05:39.646Z,6.60
2022-11-20T02:08:10.590Z,6.70
2022-11-20T02:10:41.617Z,7.20
2022-11-20T02:13:30.129Z,7.20
2022-11-20T02:16:01.123Z,7.30
2022-11-20T02:18:33.393Z,6.80
2022-11-20T02:21:10.002Z,7.10
2022-11-20T02:23:46.649Z,7.30
2022-11-20T02:26:20.643Z,7.40
2022-11-20T02:28:51.820Z,7.20
2022-11-20T02:31:22.453Z,7.00
2022-11-20T02:33:59.055Z,7.60
2022-11-20T02:36:33.122Z,7.60
2022-11-20T02:39:04.164Z,6.70
2022-11-20T02:41:40.202Z,6.70
2022-11-20T02:44:11.047Z,7.20
2022-11-20T02:46:41.643Z,6.70
2022-11-20T02:49:12.689Z,7.70
2022-11-20T02:51:43.277Z,7.20
2022-11-20T02:54:14.236Z,6.80
2022-11-20T02:56:45.165Z,7.50
2022-11-20T02:59:15.899Z,7.60
2022-11-20T03:01:46.993Z,7.10
2022-11-20T03:04:17.992Z,6.50
2022-11-20T03:06:48.903Z,6.40
2022-11-20T03:09:20.019Z,7.40
2022-11-20T03:11:51.046Z,7.10
2022-11-20T03:14:21.658Z,8.10
2022-11-20T03:16:52.292Z,7.50
2022-11-20T03:19:23.462Z,7.30
2022-11-20T03:21:54.791Z,7.10
2022-11-20T03:24:25.713Z,6.70
2022-11-20T03:26:56.475Z,7.00
2022-11-20T03:29:27.627Z,7.20
2022-11-20T03:31:58.560Z,6.70
2022-11-20T03:34:29.779Z,6.40
2022-11-20T03:37:00.400Z,6.70
2022-11-20T03:39:31.298Z,6.70
2022-11-20T03:42:02.023Z,7.40
2022-11-20T03:44:32.864Z,6.90
2022-11-20T03:47:03.702Z,6.70
2022-11-20T03:49:36.180Z,7.00
2022-11-20T03:52:07.012Z,7.10
2022-11-20T03:54:38.136Z,6.70
2022-11-20T03:57:09.289Z,7.00
2022-11-20T03:59:39.950Z,6.70
2022-11-20T04:02:10.737Z,6.40
2022-11-20T04:04:41.575Z,7.10
2022-11-20T04:07:12.624Z,7.10
2022-11-20T04:09:43.411Z,7.20
2022-11-20T04:12:14.151Z,6.60
2022-11-20T04:14:44.887Z,6.80
2022-11-20T04:17:15.524Z,7.10
2022-11-20T04:19:46.353Z,6.30
2022-11-20T04:22:16.973Z,7.30
2022-11-20T04:24:47.599Z,6.90
2022-11-20T04:27:18.248Z,6.40
2022-11-20T04:29:49.035Z,7.10
2022-11-20T04:32:19.727Z,7.30
2022-11-20T04:34:50.547Z,7.20
2022-11-20T04:37:21.406Z,7.10
2022-11-20T04:39:52.398Z,6.50
2022-11-20T04:42:32.522Z,6.60
2022-11-20T04:45:03.352Z,6.20
2022-11-20T04:47:34.067Z,6.80
2022-11-20T04:50:05.319Z,6.90
2022-11-20T04:52:36.089Z,6.20
2022-11-20T04:55:08.433Z,6.70
2022-11-20T04:57:39.013Z,6.10
2022-11-20T05:00:12.967Z,6.70
2022-11-20T05:02:44.139Z,6.20
2022-11-20T05:05:14.993Z,6.60
2022-11-20T05:07:45.732Z,6.40
2022-11-20T05:10:16.902Z,6.30
2022-11-20T05:12:47.724Z,6.80
2022-11-20T05:15:18.968Z,6.60
2022-11-20T05:17:53.599Z,6.20
2022-11-20T05:20:24.441Z,6.30
2022-11-20T05:22:58.307Z,5.90
2022-11-20T05:27:58.286Z,6.20
2022-11-20T05:30:29.227Z,6.00
2022-11-20T05:33:00.088Z,6.20
2022-11-20T05:35:30.870Z,7.10
2022-11-20T05:38:01.543Z,6.60
2022-11-20T05:40:32.532Z,5.70
2022-11-20T05:43:03.180Z,6.50
2022-11-20T05:45:33.950Z,6.30
2022-11-20T05:48:05.011Z,5.90
2022-11-20T05:50:35.746Z,6.10
2022-11-20T05:53:06.483Z,6.30
2022-11-20T05:55:37.105Z,6.80
2022-11-20T05:58:07.713Z,6.00
2022-11-20T06:00:38.953Z,5.90
2022-11-20T06:03:09.610Z,5.80
2022-11-20T06:05:40.235Z,6.30
2022-11-20T06:08:10.908Z,6.20
2022-11-20T06:10:41.703Z,6.70
2022-11-20T06:13:12.384Z,6.50
2022-11-20T06:15:43.046Z,6.00
2022-11-20T06:18:13.656Z,6.90
2022-11-20T06:20:44.270Z,6.80
2022-11-20T06:23:15.302Z,6.60
2022-11-20T06:25:46.867Z,5.60
2022-11-20T06:28:17.528Z,6.00
2022-11-20T06:30:50.340Z,5.50
2022-11-20T06:33:21.004Z,6.10
2022-11-20T06:35:56.864Z,5.10
2022-11-20T06:38:30.577Z,5.80
2022-11-20T06:41:01.219Z,6.30
2022-11-20T06:43:32.498Z,6.00
2022-11-20T06:46:03.256Z,5.70
2022-11-20T06:48:34.175Z,6.20
2022-11-20T06:51:07.359Z,6.40
2022-11-20T06:53:38.910Z,5.30
2022-11-20T06:56:10.754Z,5.50
2022-11-20T06:58:41.514Z,5.40
2022-11-20T07:01:14.577Z,5.40
2022-11-20T07:03:48.008Z,5.60
2022-11-20T07:06:22.090Z,5.30
2022-11-20T07:08:54.431Z,5.20
2022-11-20T07:11:25.492Z,5.50
2022-11-20T07:13:56.164Z,5.30
2022-11-20T07:16:27.110Z,5.30
2022-11-20T07:18:57.768Z,5.10
2022-11-20T07:21:28.608Z,5.00
2022-11-20T07:23:59.511Z,5.90
2022-11-20T07:26:30.368Z,5.50
2022-11-20T07:29:01.174Z,5.20
2022-11-20T07:31:31.875Z,5.90
2022-11-20T07:34:02.942Z,5.10
2022-11-20T07:36:33.632Z,5.60
2022-11-20T07:39:04.396Z,5.60
2022-11-20T07:41:35.222Z,5.70
2022-11-20T07:44:06.396Z,5.70
2022-11-20T07:46:37.425Z,6.80
2022-11-20T07:49:08.154Z,7.70
2022-11-20T07:51:38.894Z,8.00
2022-11-20T07:54:10.048Z,7.60
2022-11-20T07:56:40.782Z,8.00
2022-11-20T07:59:12.878Z,9.10
2022-11-20T08:01:43.990Z,9.50
2022-11-20T08:04:17.208Z,8.80
2022-11-20T08:06:48.137Z,9.50
2022-11-20T08:09:19.252Z,8.60
2022-11-20T08:12:08.124Z,9.40
2022-11-20T08:14:38.827Z,9.60
2022-11-20T08:17:09.460Z,9.10
2022-11-20T08:19:40.236Z,9.40
2022-11-20T08:22:10.894Z,10.00
2022-11-20T08:24:41.718Z,10.40
2022-11-20T08:27:12.315Z,8.90
2022-11-20T08:29:43.118Z,8.30
2022-11-20T08:32:13.927Z,8.60
2022-11-20T08:34:44.753Z,8.30
2022-11-20T08:37:15.507Z,8.70
2022-11-20T08:39:46.145Z,8.60
2022-11-20T08:42:16.836Z,7.90
2022-11-20T08:44:47.718Z,8.40
2022-11-20T08:47:18.618Z,8.10
2022-11-20T08:49:49.400Z,8.20
2022-11-20T08:52:20.237Z,8.40
2022-11-20T08:54:51.211Z,7.90
2022-11-20T08:57:22.005Z,7.60
2022-11-20T09:00:06.148Z,7.80
2022-11-20T09:02:37.924Z,8.10
2022-11-20T09:05:09.844Z,7.70
2022-11-20T09:07:41.447Z,7.70
2022-11-20T09:10:28.783Z,8.10
2022-11-20T09:12:59.997Z,7.40
2022-11-20T09:15:30.852Z,7.20
2022-11-20T09:18:03.438Z,6.80
2022-11-20T09:20:34.637Z,7.20
2022-11-20T09:23:05.367Z,7.40
2022-11-20T09:25:36.055Z,7.20
2022-11-20T09:28:07.405Z,7.50
2022-11-20T09:30:38.349Z,7.00
2022-11-20T09:33:09.742Z,7.40
2022-11-20T09:35:40.953Z,7.30
2022-11-20T09:38:12.921Z,6.40
2022-11-20T09:40:50.306Z,7.50
2022-11-20T09:43:25.749Z,6.50
2022-11-20T09:46:08.564Z,7.10
2022-11-20T09:48:57.802Z,6.20
2022-11-20T09:51:43.337Z,6.20
2022-11-20T09:54:20.204Z,6.20
2022-11-20T09:56:57.152Z,6.90
2022-11-20T09:59:37.412Z,6.30
2022-11-20T10:02:22.170Z,6.70
2022-11-20T10:04:58.232Z,5.90
2022-11-20T10:07:38.708Z,6.00
2022-11-20T10:10:31.449Z,6.30
2022-11-20T10:13:17.320Z,6.20
2022-11-20T10:18:33.256Z,5.40
2022-11-20T10:21:11.990Z,5.70
2022-11-20T10:23:55.128Z,5.20
2022-11-20T10:26:38.287Z,5.30
2022-11-20T10:29:15.203Z,6.00
2022-11-20T10:31:50.413Z,6.00
2022-11-20T10:34:29.166Z,6.10
2022-11-20T10:37:07.216Z,5.60
2022-11-20T10:39:44.819Z,5.80
2022-11-20T10:42:19.525Z,6.00
2022-11-20T10:45:06.055Z,5.60
2022-11-20T10:47:38.047Z,5.90
2022-11-20T10:50:21.677Z,4.90
2022-11-20T10:53:02.966Z,6.00
2022-11-20T10:55:42.768Z,5.80
2022-11-20T11:00:46.609Z,4.80
2022-11-20T11:03:29.671Z,5.00
2022-11-20T11:06:07.931Z,5.60
2022-11-20T11:08:41.732Z,5.50
2022-11-20T11:11:23.443Z,5.40
2022-11-20T11:13:54.520Z,5.80
2022-11-20T11:16:28.184Z,5.20
2022-11-20T11:21:42.441Z,5.20
2022-11-20T11:24:41.696Z,4.50
2022-11-20T11:27:19.191Z,5.10
2022-11-20T11:29:50.556Z,5.40
2022-11-20T11:32:24.090Z,5.10
2022-11-20T11:35:05.459Z,5.10
2022-11-20T11:37:39.227Z,4.80
2022-11-20T11:43:03.578Z,4.70
2022-11-20T11:45:34.334Z,4.80
2022-11-20T11:48:11.349Z,4.70
2022-11-20T11:50:53.046Z,4.90
2022-11-20T11:53:27.514Z,5.30
2022-11-20T11:56:06.000Z,4.70
2022-11-20T11:58:46.870Z,4.70
2022-11-20T12:01:30.119Z,5.20
2022-11-20T12:04:06.572Z,4.40
2022-11-20T12:06:41.849Z,4.30
2022-11-20T12:09:15.032Z,4.90
2022-11-20T12:11:52.289Z,4.60
2022-11-20T12:14:29.989Z,4.70
2022-11-20T12:17:02.455Z,4.80
2022-11-20T12:19:35.356Z,4.60
2022-11-20T12:22:15.144Z,4.80
2022-11-20T12:24:58.621Z,5.00
2022-11-20T12:27:54.982Z,4.70
2022-11-20T12:30:26.621Z,4.70
2022-11-20T12:33:39.269Z,4.60
2022-11-20T12:36:21.902Z,4.80
2022-11-20T12:39:12.010Z,4.60
2022-11-20T12:42:13.586Z,5.20
2022-11-20T12:45:12.231Z,4.60
2022-11-20T12:47:57.664Z,4.20
2022-11-20T12:50:53.676Z,4.50
2022-11-20T12:53:38.923Z,4.50
2022-11-20T12:56:22.876Z,4.40
2022-11-20T12:59:07.501Z,4.60
2022-11-20T13:01:45.925Z,4.20
2022-11-20T13:04:35.330Z,5.10
2022-11-20T13:07:10.007Z,4.10
2022-11-20T13:09:47.390Z,4.60
2022-11-20T13:12:26.498Z,4.70
2022-11-20T13:15:07.343Z,5.00
2022-11-20T13:17:44.948Z,4.50
2022-11-20T13:20:20.124Z,4.10
2022-11-20T13:22:53.208Z,4.70
2022-11-20T13:25:29.379Z,4.30
2022-11-20T13:28:01.994Z,4.30
2022-11-20T13:30:34.382Z,4.40
2022-11-20T13:33:10.841Z,4.60
2022-11-20T13:35:44.886Z,4.30
2022-11-20T13:38:16.836Z,4.40
2022-11-20T13:40:57.614Z,4.20
2022-11-20T13:43:37.310Z,4.20
2022-11-20T13:46:10.699Z,5.00
2022-11-20T13:48:45.696Z,5.30
2022-11-20T13:51:31.255Z,4.60
2022-11-20T13:54:36.887Z,5.10
2022-11-20T13:57:18.601Z,4.50
2022-11-20T13:59:59.655Z,5.60
2022-11-20T14:02:32.167Z,4.80
2022-11-20T14:05:04.008Z,4.70
2022-11-20T14:07:42.057Z,4.70
2022-11-20T14:10:30.100Z,5.20
2022-11-20T14:13:17.801Z,4.90
2022-11-20T14:18:22.820Z,4.50
2022-11-20T14:20:53.713Z,4.40
2022-11-20T14:23:30.740Z,4.60
2022-11-20T14:26:01.783Z,4.70
2022-11-20T14:28:34.118Z,5.20
2022-11-20T14:31:05.098Z,4.50
2022-11-20T14:33:37.778Z,4.30
2022-11-20T14:36:19.010Z,4.80
2022-11-20T14:38:50.535Z,4.10
2022-11-20T14:41:23.705Z,4.40
2022-11-20T14:43:58.944Z,4.90
2022-11-20T14:46:29.920Z,4.40
2022-11-20T14:49:03.724Z,4.90
2022-11-20T14:51:37.846Z,4.60
2022-11-20T14:54:19.911Z,4.10
2022-11-20T14:57:00.135Z,4.80
2022-11-20T14:59:32.917Z,4.90
2022-11-20T15:02:06.351Z,4.60
2022-11-20T15:04:46.498Z,5.00
2022-11-20T15:07:27.678Z,4.60
2022-11-20T15:10:08.171Z,4.50
2022-11-20T15:12:42.759Z,4.90
2022-11-20T15:15:19.235Z,4.60
2022-11-20T15:17:50.892Z,4.70
2022-11-20T15:20:24.070Z,4.50
2022-11-20T15:22:55.362Z,4.90
2022-11-20T15:25:26.751Z,4.60
2022-11-20T15:27:59.583Z,4.50
2022-11-20T15:30:31.095Z,4.70
2022-11-20T15:33:01.807Z,4.90
2022-11-20T15:35:32.944Z,4.90
2022-11-20T15:38:03.686Z,4.60
2022-11-20T15:40:35.098Z,4.40
2022-11-20T15:43:12.568Z,4.50
2022-11-20T15:45:47.015Z,4.20
2022-11-20T15:48:21.582Z,4.70
2022-11-20T15:50:56.301Z,4.30
2022-11-20T15:53:27.370Z,4.80
2022-11-20T15:55:58.263Z,4.40
2022-11-20T15:58:29.316Z,5.50
2022-11-20T16:01:00.504Z,18.60
2022-11-20T16:03:31.328Z,25.70
2022-11-20T16:06:02.287Z,26.30
2022-11-20T16:08:33.392Z,24.50
2022-11-20T16:11:04.895Z,23.80
2022-11-20T16:13:53.313Z,25.20
2022-11-20T16:16:29.713Z,23.00
2022-11-20T16:19:01.499Z,21.90
2022-11-20T16:21:33.133Z,22.40
2022-11-20T16:24:05.685Z,20.40
2022-11-20T16:26:37.204Z,20.30
2022-11-20T16:29:08.989Z,18.20
2022-11-20T16:31:40.192Z,18.60
2022-11-20T16:34:12.713Z,18.00
2022-11-20T16:36:46.091Z,17.70
2022-11-20T16:39:23.036Z,17.50
2022-11-20T16:41:55.198Z,17.50
2022-11-20T16:44:27.010Z,17.10
2022-11-20T16:46:58.857Z,17.10
2022-11-20T16:49:30.014Z,16.30
2022-11-20T16:52:01.275Z,15.40
2022-11-20T16:54:32.091Z,13.90
2022-11-20T16:57:03.045Z,14.20
2022-11-20T16:59:34.023Z,13.60
2022-11-20T17:02:05.002Z,14.30
2022-11-20T17:04:36.084Z,13.10
2022-11-20T17:07:08.221Z,12.70
2022-11-20T17:09:41.256Z,13.00
2022-11-20T17:12:13.124Z,12.80
2022-11-20T17:14:44.180Z,12.00
2022-11-20T17:17:14.965Z,12.40
2022-11-20T17:19:48.422Z,12.20
2022-11-20T17:22:19.331Z,11.50
2022-11-20T17:24:50.058Z,11.20
2022-11-20T17:27:20.914Z,10.40
2022-11-20T17:29:52.160Z,11.30
2022-11-20T17:32:23.145Z,10.30
2022-11-20T17:34:53.938Z,9.80
2022-11-20T17:37:24.925Z,10.00
2022-11-20T17:39:55.725Z,9.40
2022-11-20T17:42:29.959Z,9.90
2022-11-20T17:45:01.259Z,9.60
2022-11-20T17:47:32.034Z,9.20
2022-11-20T17:50:02.875Z,8.80
2022-11-20T17:52:33.851Z,8.40
2022-11-20T17:55:05.068Z,8.90
2022-11-20T17:57:56.042Z,9.50
2022-11-20T18:00:27.363Z,7.70
2022-11-20T18:02:59.285Z,8.20
2022-11-20T18:05:30.899Z,7.80
2022-11-20T18:08:01.988Z,9.10
2022-11-20T18:10:33.574Z,8.10
2022-11-20T18:13:04.633Z,8.40
2022-11-20T18:15:35.754Z,8.10
2022-11-20T18:18:06.904Z,7.80
2022-11-20T18:20:40.052Z,8.00
2022-11-20T18:23:11.057Z,7.50
2022-11-20T18:25:43.584Z,7.20
2022-11-20T18:28:14.537Z,7.50
2022-11-20T18:30:46.380Z,7.50
2022-11-20T18:33:19.065Z,7.20
2022-11-20T18:35:50.068Z,7.10
2022-11-20T18:38:21.202Z,7.30
2022-11-20T18:40:52.475Z,7.20
2022-11-20T18:43:41.171Z,7.50
2022-11-20T18:46:31.561Z,7.50
2022-11-20T18:49:03.839Z,6.70
2022-11-20T18:51:35.703Z,6.70
2022-11-20T18:54:07.039Z,7.40
2022-11-20T18:56:37.988Z,7.30
2022-11-20T18:59:10.988Z,6.90
2022-11-20T19:01:42.211Z,7.20
2022-11-20T19:04:15.457Z,7.10
2022-11-20T19:06:49.945Z,6.80
2022-11-20T19:09:20.695Z,6.90
2022-11-20T19:11:51.905Z,7.70
2022-11-20T19:14:22.775Z,7.10
2022-11-20T19:16:55.459Z,6.90
2022-11-20T19:19:26.900Z,7.40
2022-11-20T19:21:57.908Z,7.00
2022-11-20T19:24:29.540Z,7.30
2022-11-20T19:27:01.387Z,7.00
2022-11-20T19:29:32.323Z,7.30
2022-11-20T19:32:04.595Z,6.90
2022-11-20T19:34:35.417Z,6.40
2022-11-20T19:37:06.550Z,6.80
2022-11-20T19:39:39.194Z,7.10
2022-11-20T19:42:10.291Z,6.70
2022-11-20T19:44:41.355Z,6.90
2022-11-20T19:47:14.733Z,7.50
2022-11-20T19:52:15.714Z,6.50
2022-11-20T19:54:46.776Z,6.90
2022-11-20T19:57:17.763Z,7.60
2022-11-20T19:59:48.571Z,7.00
2022-11-20T20:02:20.202Z,6.50
2022-11-20T20:04:51.490Z,7.00
2022-11-20T20:07:22.619Z,7.30
2022-11-20T20:09:53.737Z,7.30
2022-11-20T20:12:25.100Z,6.80
2022-11-20T20:14:56.354Z,6.90
2022-11-20T20:17:27.426Z,6.80
2022-11-20T20:19:58.649Z,6.70
2022-11-20T20:22:29.698Z,7.50
2022-11-20T20:25:00.780Z,6.80
2022-11-20T20:27:32.779Z,6.60
2022-11-20T20:30:03.575Z,8.00
2022-11-20T20:32:35.375Z,6.30
2022-11-20T20:35:07.468Z,7.80
2022-11-20T20:37:38.415Z,7.10
2022-11-20T20:40:15.178Z,7.10
2022-11-20T20:42:46.288Z,6.70
2022-11-20T20:45:17.199Z,6.90
2022-11-20T20:47:47.902Z,7.80
2022-11-20T20:50:19.184Z,6.80
2022-11-20T20:52:50.014Z,7.60
2022-11-20T20:55:21.152Z,7.10
2022-11-20T20:57:53.803Z,7.00
2022-11-20T21:00:24.513Z,7.00
2022-11-20T21:02:55.418Z,6.20
2022-11-20T21:05:26.099Z,6.70
2022-11-20T21:08:14.637Z,7.20
2022-11-20T21:10:45.570Z,6.40
2022-11-20T21:13:16.951Z,6.60
2022-11-20T21:15:50.396Z,6.90
2022-11-20T21:18:22.765Z,6.60
2022-11-20T21:21:11.524Z,6.70
2022-11-20T21:23:43.044Z,6.90
2022-11-20T21:26:13.804Z,6.50
2022-11-20T21:28:44.894Z,6.40
2022-11-20T21:31:17.122Z,6.70
2022-11-20T21:33:49.003Z,6.60
2022-11-20T21:36:21.595Z,6.40
2022-11-20T21:38:54.403Z,7.00
2022-11-20T21:41:26.553Z,6.50
2022-11-20T21:44:41.590Z,6.70
2022-11-20T21:46:49.425Z,6.50
2022-11-20T21:49:20.540Z,6.50
2022-11-20T21:51:51.383Z,6.60
2022-11-20T21:54:22.616Z,6.20
2022-11-20T21:56:53.537Z,6.70
2022-11-20T21:59:24.698Z,6.80
2022-11-20T22:01:55.490Z,7.10
2022-11-20T22:04:26.433Z,6.40
2022-11-20T22:06:57.279Z,6.60
2022-11-20T22:09:27.967Z,6.80
2022-11-20T22:11:58.811Z,6.10
2022-11-20T22:14:29.563Z,6.90
2022-11-20T22:17:00.314Z,6.50
2022-11-20T22:19:31.102Z,7.20
2022-11-20T22:22:01.708Z,6.50
2022-11-20T22:24:32.611Z,6.70
2022-11-20T22:27:03.491Z,6.80
2022-11-20T22:29:34.963Z,6.50
2022-11-20T22:32:06.169Z,6.20
2022-11-20T22:34:37.190Z,6.60
2022-11-20T22:37:07.999Z,6.70
2022-11-20T22:39:39.422Z,6.70
2022-11-20T22:42:10.209Z,6.50
2022-11-20T22:44:40.891Z,7.10
2022-11-20T22:47:11.725Z,6.80
2022-11-20T22:49:42.439Z,5.80
2022-11-20T22:52:13.083Z,6.60
2022-11-20T22:54:43.923Z,6.50
2022-11-20T22:57:14.544Z,6.70
2022-11-20T22:59:45.289Z,6.80
2022-11-20T23:02:15.988Z,5.90
2022-11-20T23:04:47.135Z,6.40
2022-11-20T23:07:17.776Z,6.30
2022-11-20T23:09:48.430Z,6.70
2022-11-20T23:12:19.159Z,6.60
2022-11-20T23:14:49.902Z,6.90
2022-11-20T23:17:20.557Z,6.50
2022-11-20T23:19:52.781Z,5.50
2022-11-20T23:22:23.427Z,6.70
2022-11-20T23:24:54.367Z,6.10
2022-11-20T23:27:28.285Z,7.30
2022-11-20T23:29:59.570Z,6.70
2022-11-20T23:32:30.202Z,6.20
2022-11-20T23:35:00.936Z,6.70
2022-11-20T23:37:31.778Z,6.20
2022-11-20T23:40:02.933Z,6.40
2022-11-20T23:42:33.533Z,6.30
2022-11-20T23:45:04.503Z,7.00
2022-11-20T23:47:35.150Z,5.90
2022-11-20T23:50:06.462Z,7.10
2022-11-20T23:52:37.260Z,6.80
2022-11-20T23:55:09.071Z,6.00
2022-11-20T23:57:39.726Z,6.10
